Vantage, Washington
Current Conditions -  °F | °C
As of 8:53 AM on Saturday 25 Oct 2014 (Local Time) from KELN Reporting Station
Overcast Overcast  
Wind Chill: 47°   Ceiling: 2400
Heat Index: 49°   Visibility: 9mi
Dew Point: 45°   Wind: 5mph
Humidity: 86%   Direction: 290°WNW
Pressure: 29.64"   Gusts: NA
Location:  46.95°N, 119.99°W
Report Text: KELN 251553Z AUTO 29004KT 9SM OVC024 09/07 A2964 RMK AO2 SLP039 T00940072
Loading
Personal Weather Stations






























Interactive Weather Map
Tropical Storm Tracking
New forecast layout! Learn more

10-Day Weather Forecast

Advertisements
Track Severe Weather on mobile